KBYS/BYS METAR and TAF weather

Enter ICAO airport designator
Station Type Date Time Source
KBYS METAR 2024/04/17 13:55 UTC NOAA

KBYS 171355Z AUTO 03006KT 9SM CLR 12/03 A2999 RMK AO2 SLP139 T01220029


Station Type Date Time Source
KBYS Decoded METAR 2024/04/17 13:55 UTC NOAA

Fort Irwin/Barstow, Bicycle Lake Army Airfield, CA, United States (KBYS) 35-17N 116-37W 716M
Apr 17, 2024 - 09:55 AM EDT / 2024.04.17 1355 UTC
Wind: from the NNE (030 degrees) at 7 MPH (6 KT):0
Visibility: 9 mile(s):0
Sky conditions: clear
Temperature: 54.0 F (12.2 C)
Dew Point: 37.2 F (2.9 C)
Relative Humidity: 52%
Pressure (altimeter): 29.99 in. Hg (1015 hPa)
ob: KBYS 171355Z AUTO 03006KT 9SM CLR 12/03 A2999 RMK AO2 SLP139 T01220029
cycle: 14

Station Type Date Time Source
KBYS TAF 2011/12/24 07:07 UTC NOAA